Time;durP1;ratioP1;P1;durP2;ratioP2;P2;SDS_P1;SDS_P2;PMS_P1;PMS_P2;Temp;Humidity;BMP_temperature;BMP_pressure;BME280_temperature;BME280_humidity;BME280_pressure;Samples;Min_cycle;Max_cycle;Signal;HPM_P1;HPM_P2
2021/06/05 00:01:57;;;;;;;9.53;7.85;;;;;;;17.43;55.28;100659.16;154177;1101;103128;-81
2021/06/05 00:05:01;;;;;;;13.30;8.80;;;;;;;17.43;55.00;100661.85;154147;1101;103194;-79
2021/06/05 00:08:06;;;;;;;11.70;8.97;;;;;;;17.39;54.70;100650.59;154197;1101;103132;-82
2021/06/05 00:11:10;;;;;;;13.70;9.70;;;;;;;17.30;54.69;100654.41;154217;1101;103365;-81
2021/06/05 00:14:15;;;;;;;10.33;8.50;;;;;;;17.24;55.10;100645.23;154258;1101;103055;-79
2021/06/05 00:17:19;;;;;;;12.17;8.83;;;;;;;17.26;55.19;100645.89;154058;1095;103126;-80
2021/06/05 00:20:28;;;;;;;9.67;8.10;;;;;;;17.25;55.08;100638.80;154198;1101;103157;-77
2021/06/05 00:23:32;;;;;;;10.13;7.90;;;;;;;17.24;54.67;100649.77;154080;1101;103139;-76
2021/06/05 00:26:37;;;;;;;10.43;8.60;;;;;;;17.16;55.12;100653.41;154022;1095;103292;-79
2021/06/05 00:29:41;;;;;;;11.80;9.07;;;;;;;17.16;55.60;100655.27;154192;1101;103205;-80
2021/06/05 00:32:44;;;;;;;12.20;9.93;;;;;;;17.15;55.92;100646.36;154267;1101;103196;-78
2021/06/05 00:35:48;;;;;;;15.25;10.98;;;;;;;17.13;55.72;100652.94;154140;1093;103215;-79
2021/06/05 00:38:54;;;;;;;13.80;11.20;;;;;;;17.08;56.12;100653.51;154213;1101;103195;-81
2021/06/05 00:41:57;;;;;;;14.73;12.43;;;;;;;17.06;56.09;100660.95;154310;1101;103261;-80
2021/06/05 00:45:02;;;;;;;14.40;11.53;;;;;;;17.11;56.70;100660.38;154245;1101;103164;-83
2021/06/05 00:48:07;;;;;;;14.67;10.97;;;;;;;17.12;56.50;100662.06;154354;1095;103108;-80
2021/06/05 00:51:11;;;;;;;18.90;11.50;;;;;;;17.17;56.82;100662.35;154261;1101;103131;-78
2021/06/05 00:54:20;;;;;;;16.40;12.17;;;;;;;17.23;57.08;100656.21;154512;1101;103151;-78
2021/06/05 00:57:25;;;;;;;14.70;10.93;;;;;;;17.27;57.26;100647.55;154003;1094;103292;-79
2021/06/05 01:00:35;;;;;;;13.33;10.80;;;;;;;17.30;57.28;100645.49;154023;1094;103133;-75
2021/06/05 01:03:40;;;;;;;13.50;9.80;;;;;;;17.31;57.44;100636.39;154053;1101;103186;-74
2021/06/05 01:06:51;;;;;;;12.68;10.25;;;;;;;17.30;57.48;100637.41;154113;1101;103192;-74
2021/06/05 01:10:01;;;;;;;14.78;10.53;;;;;;;17.26;57.61;100635.10;154047;1101;103149;-73
2021/06/05 01:13:21;;;;;;;17.03;11.40;;;;;;;17.27;57.30;100639.45;154264;1093;103323;-76
2021/06/05 01:16:26;;;;;;;12.63;10.77;;;;;;;17.23;57.58;100635.47;154152;1093;103104;-78
2021/06/05 01:19:45;;;;;;;14.90;11.48;;;;;;;17.22;57.93;100627.55;154123;1101;103243;-78
2021/06/05 01:23:11;;;;;;;15.85;11.50;;;;;;;17.16;57.95;100623.74;154316;1101;103131;-76
2021/06/05 01:26:20;;;;;;;13.30;11.37;;;;;;;17.13;58.06;100624.14;154083;1101;103493;-81
2021/06/05 01:29:27;;;;;;;13.65;10.33;;;;;;;17.13;58.04;100621.44;154240;1096;103274;-80
2021/06/05 01:32:32;;;;;;;14.20;10.75;;;;;;;17.10;57.91;100613.71;154066;1101;103135;-80
2021/06/05 01:35:36;;;;;;;14.93;10.33;;;;;;;17.11;58.26;100614.54;154305;1097;103119;-78
2021/06/05 01:38:43;;;;;;;12.77;10.47;;;;;;;17.11;57.96;100610.01;154239;1101;103186;-81
2021/06/05 01:41:49;;;;;;;15.57;11.67;;;;;;;17.11;58.35;100607.31;154339;1097;103179;-79
2021/06/05 01:44:57;;;;;;;13.27;10.97;;;;;;;17.08;58.37;100608.50;154258;1101;103278;-79
2021/06/05 01:48:02;;;;;;;17.58;11.55;;;;;;;17.10;58.54;100608.32;154039;1101;103202;-78
2021/06/05 01:51:12;;;;;;;16.90;11.75;;;;;;;17.08;58.51;100607.67;154076;1097;103304;-79
2021/06/05 01:54:21;;;;;;;14.27;11.87;;;;;;;17.08;58.90;100602.28;154401;1101;103122;-81
2021/06/05 01:57:29;;;;;;;14.13;11.53;;;;;;;17.03;58.80;100601.99;156577;1101;103149;-82
2021/06/05 02:00:42;;;;;;;14.87;11.43;;;;;;;17.03;59.00;100602.86;156495;1101;103270;-82
2021/06/05 02:03:47;;;;;;;17.83;12.13;;;;;;;17.00;58.84;100602.39;156644;1100;103187;-82
2021/06/05 02:07:00;;;;;;;15.40;11.50;;;;;;;16.96;59.20;100593.83;156603;1101;103125;-82
2021/06/05 02:10:10;;;;;;;12.57;10.00;;;;;;;17.00;59.10;100597.83;156475;1101;103051;-82
2021/06/05 02:13:20;;;;;;;13.77;10.13;;;;;;;17.05;59.26;100595.41;154952;1097;103107;-81
2021/06/05 02:16:35;;;;;;;13.13;10.27;;;;;;;17.12;59.21;100602.75;154985;1101;103261;-80
2021/06/05 02:19:41;;;;;;;15.35;11.03;;;;;;;17.11;59.32;100604.61;154096;1101;103183;-79
2021/06/05 02:23:01;;;;;;;14.07;10.73;;;;;;;17.09;59.44;100617.45;154013;1096;103195;-77
2021/06/05 02:26:06;;;;;;;14.20;10.50;;;;;;;17.10;59.51;100629.89;154142;1101;103221;-82
2021/06/05 02:29:13;;;;;;;13.50;11.27;;;;;;;17.09;59.00;100636.32;154603;1095;103169;-75
2021/06/05 02:32:21;;;;;;;14.75;12.20;;;;;;;17.08;58.94;100632.77;154026;1096;103212;-75
2021/06/05 02:35:29;;;;;;;19.13;12.40;;;;;;;17.08;59.18;100623.84;154134;1096;103199;-73
2021/06/05 02:38:40;;;;;;;19.33;13.78;;;;;;;16.91;58.94;100627.76;154024;1101;103133;-73
2021/06/05 02:41:46;;;;;;;15.37;12.90;;;;;;;16.83;59.24;100629.52;154130;1097;103210;-76
2021/06/05 02:44:53;;;;;;;16.33;13.07;;;;;;;16.85;59.33;100624.77;153989;1101;103199;-75
2021/06/05 02:48:00;;;;;;;13.97;11.77;;;;;;;16.83;59.48;100624.13;154073;1101;103271;-78
2021/06/05 02:51:07;;;;;;;14.87;10.90;;;;;;;16.87;59.60;100608.42;154205;1096;103261;-80
2021/06/05 02:54:11;;;;;;;14.88;11.15;;;;;;;16.97;59.58;100608.14;154665;1101;103123;-80
2021/06/05 02:57:15;;;;;;;16.20;12.33;;;;;;;16.99;59.46;100608.78;154084;1101;103190;-77
2021/06/05 03:00:25;;;;;;;17.23;11.93;;;;;;;16.99;59.60;100606.92;154092;1096;103196;-81
2021/06/05 03:03:30;;;;;;;18.15;12.35;;;;;;;17.01;59.73;100610.30;154104;1101;103203;-78
2021/06/05 03:06:35;;;;;;;14.65;12.45;;;;;;;16.98;59.71;100607.13;154059;1101;103279;-79
2021/06/05 03:09:39;;;;;;;19.07;14.43;;;;;;;16.98;59.55;100599.88;154206;1101;103243;-79
2021/06/05 03:12:43;;;;;;;19.65;13.58;;;;;;;17.00;59.81;100605.08;154035;1101;103193;-79
2021/06/05 03:15:49;;;;;;;18.60;14.77;;;;;;;17.00;59.76;100595.13;154022;1095;103142;-79
2021/06/05 03:18:54;;;;;;;14.48;12.30;;;;;;;16.99;60.13;100596.14;154087;1094;103343;-78
2021/06/05 03:21:58;;;;;;;15.30;12.33;;;;;;;16.98;59.91;100586.39;154516;1101;103196;-79
2021/06/05 03:25:12;;;;;;;14.50;10.40;;;;;;;16.97;60.23;100600.05;154494;1101;103160;-75
2021/06/05 03:28:18;;;;;;;12.18;9.83;;;;;;;16.98;60.00;100590.95;154011;1101;103182;-77
2021/06/05 03:31:25;;;;;;;13.25;10.30;;;;;;;17.00;60.23;100600.52;154031;1095;103196;-77
2021/06/05 03:34:29;;;;;;;12.58;10.45;;;;;;;17.00;60.20;100607.78;154084;1095;103198;-78
2021/06/05 03:37:34;;;;;;;15.17;11.03;;;;;;;17.03;60.28;100602.86;154118;1096;103206;-77
2021/06/05 03:40:39;;;;;;;13.70;11.03;;;;;;;17.05;60.59;100600.80;154031;1101;103128;-77
2021/06/05 03:43:43;;;;;;;15.90;10.80;;;;;;;17.08;60.51;100594.19;154028;1101;103195;-78
2021/06/05 03:46:48;;;;;;;12.38;10.65;;;;;;;17.05;60.40;100597.25;154020;1096;103140;-79
2021/06/05 03:49:53;;;;;;;13.15;10.75;;;;;;;16.97;60.29;100600.05;154024;1101;104457;-81
2021/06/05 03:52:57;;;;;;;13.97;10.27;;;;;;;16.97;60.51;100595.48;154041;1096;103556;-80
2021/06/05 03:56:03;;;;;;;13.43;10.07;;;;;;;17.00;60.99;100597.00;154147;1096;103133;-78
2021/06/05 03:59:09;;;;;;;13.98;10.58;;;;;;;17.03;61.06;100596.60;154020;1101;103103;-78
2021/06/05 04:02:12;;;;;;;11.78;9.03;;;;;;;17.04;60.99;100609.91;154193;1101;103125;-79
2021/06/05 04:05:17;;;;;;;9.83;8.28;;;;;;;17.08;61.08;100600.41;154166;1096;103371;-81
2021/06/05 04:08:20;;;;;;;10.97;9.20;;;;;;;17.14;61.42;100601.53;154247;1096;103150;-79
2021/06/05 04:11:24;;;;;;;12.03;9.03;;;;;;;17.19;61.19;100593.72;154132;1101;103128;-79
2021/06/05 04:14:28;;;;;;;12.90;9.73;;;;;;;17.24;61.25;100610.18;154106;1101;103118;-78
2021/06/05 04:17:31;;;;;;;11.93;9.13;;;;;;;17.21;61.38;100596.23;153919;1101;103474;-78
2021/06/05 04:20:36;;;;;;;11.60;9.67;;;;;;;17.24;61.40;100594.00;154051;1101;103223;-77
2021/06/05 04:23:40;;;;;;;13.53;9.23;;;;;;;17.24;61.37;100596.70;154104;1096;103162;-77
2021/06/05 04:26:44;;;;;;;11.90;9.87;;;;;;;17.24;61.69;100594.00;154034;1101;103189;-77
2021/06/05 04:29:47;;;;;;;11.77;9.67;;;;;;;17.26;61.71;100599.18;154056;1096;103150;-77
2021/06/05 04:32:52;;;;;;;11.63;10.08;;;;;;;17.23;61.39;100608.49;154006;1101;103585;-77
2021/06/05 04:35:58;;;;;;;12.53;9.40;;;;;;;17.22;61.41;100605.98;153962;1095;103350;-78
2021/06/05 04:39:03;;;;;;;12.03;8.43;;;;;;;17.25;61.64;100601.05;153961;1096;103099;-77
2021/06/05 04:42:09;;;;;;;9.67;8.67;;;;;;;17.32;61.73;100606.54;153962;1101;103129;-77
2021/06/05 04:45:14;;;;;;;11.00;9.15;;;;;;;17.38;61.66;100602.22;154007;1096;103192;-80
2021/06/05 04:48:19;;;;;;;11.33;9.07;;;;;;;17.42;61.67;100590.88;154113;1095;103179;-81
2021/06/05 04:51:23;;;;;;;10.35;8.93;;;;;;;17.52;61.62;100595.15;154085;1096;103253;-81
2021/06/05 04:54:27;;;;;;;12.53;8.70;;;;;;;17.59;61.52;100596.89;154256;1096;103133;-80
2021/06/05 04:57:30;;;;;;;12.88;9.18;;;;;;;17.66;61.93;100594.25;154013;1101;103246;-82
2021/06/05 05:00:36;;;;;;;13.13;9.18;;;;;;;17.72;61.55;100600.75;154061;1101;103195;-81
2021/06/05 05:03:40;;;;;;;11.65;9.70;;;;;;;17.73;61.92;100615.93;154112;1101;103218;-81
2021/06/05 05:06:44;;;;;;;11.93;9.97;;;;;;;17.50;61.52;100625.01;154111;1101;103202;-78
2021/06/05 05:09:48;;;;;;;12.67;9.83;;;;;;;17.36;61.94;100617.77;153992;1101;103098;-77
2021/06/05 05:12:51;;;;;;;13.03;10.18;;;;;;;17.34;61.86;100607.19;153966;1101;103148;-78
2021/06/05 05:15:56;;;;;;;13.03;9.00;;;;;;;17.39;61.68;100622.80;153944;1096;103118;-79
2021/06/05 05:19:00;;;;;;;11.10;8.93;;;;;;;17.36;62.66;100629.41;154009;1096;103144;-79
2021/06/05 05:22:05;;;;;;;13.10;9.20;;;;;;;17.29;61.92;100631.18;154065;1101;103301;-75
2021/06/05 05:25:12;;;;;;;12.50;9.00;;;;;;;17.34;61.79;100623.38;154006;1095;103580;-73
2021/06/05 05:28:18;;;;;;;14.80;9.85;;;;;;;17.41;61.96;100634.23;154003;1095;103195;-75
2021/06/05 05:31:24;;;;;;;11.70;9.60;;;;;;;17.42;61.88;100642.14;154012;1096;103128;-76
2021/06/05 05:34:27;;;;;;;11.90;9.60;;;;;;;17.50;61.86;100645.77;154067;1095;103134;-81
2021/06/05 05:37:31;;;;;;;14.07;9.30;;;;;;;17.51;61.58;100645.55;153939;1096;103320;-79
2021/06/05 05:40:36;;;;;;;10.50;9.40;;;;;;;17.53;61.59;100638.10;153962;1096;103196;-79
2021/06/05 05:43:40;;;;;;;10.50;9.10;;;;;;;17.62;61.58;100642.36;153971;1101;103157;-75
2021/06/05 05:46:44;;;;;;;10.93;8.93;;;;;;;17.69;61.75;100644.30;154023;1096;103107;-75
2021/06/05 05:49:47;;;;;;;11.55;9.13;;;;;;;17.69;61.57;100636.20;153936;1101;103214;-75
2021/06/05 05:52:51;;;;;;;9.30;8.30;;;;;;;17.75;61.55;100641.69;153927;1094;103276;-75
2021/06/05 05:55:55;;;;;;;10.43;7.90;;;;;;;17.86;61.55;100640.40;153982;1096;103203;-75
2021/06/05 05:58:58;;;;;;;11.70;8.67;;;;;;;17.84;61.64;100637.02;154030;1101;103125;-79
2021/06/05 06:02:02;;;;;;;9.30;8.18;;;;;;;17.86;61.63;100629.60;154086;1101;103187;-78
2021/06/05 06:05:08;;;;;;;9.20;8.15;;;;;;;18.11;61.67;100634.59;153975;1097;103221;-77
2021/06/05 06:08:14;;;;;;;11.50;8.50;;;;;;;18.44;61.62;100637.61;153966;1096;103272;-80
2021/06/05 06:11:18;;;;;;;9.73;8.50;;;;;;;18.47;61.42;100634.50;153970;1096;103131;-77
2021/06/05 06:14:21;;;;;;;9.80;8.80;;;;;;;18.61;61.08;100633.59;153936;1101;103557;-74
2021/06/05 06:17:25;;;;;;;10.77;8.10;;;;;;;18.70;61.02;100634.26;153961;1094;103121;-72
2021/06/05 06:20:31;;;;;;;10.87;8.90;;;;;;;18.75;60.90;100634.52;153955;1101;103557;-72
2021/06/05 06:23:36;;;;;;;9.75;8.65;;;;;;;18.73;60.79;100630.34;153993;1096;103282;-73
2021/06/05 06:26:40;;;;;;;11.10;8.30;;;;;;;18.83;60.66;100636.26;154006;1096;103157;-73
2021/06/05 06:29:44;;;;;;;9.90;8.60;;;;;;;19.00;60.35;100639.48;153929;1101;103110;-76
2021/06/05 06:32:52;;;;;;;10.55;8.10;;;;;;;19.11;60.10;100638.93;153963;1101;103110;-77
2021/06/05 06:35:57;;;;;;;10.30;8.40;;;;;;;19.15;59.54;100644.75;154065;1101;103125;-75
2021/06/05 06:39:00;;;;;;;9.37;8.37;;;;;;;19.08;59.01;100647.44;154051;1096;103611;-78
2021/06/05 06:42:06;;;;;;;8.20;7.33;;;;;;;19.06;59.67;100646.80;154235;1101;103196;-81
2021/06/05 06:45:13;;;;;;;8.10;6.97;;;;;;;19.16;59.88;100641.84;154106;1095;103147;-78
2021/06/05 06:48:17;;;;;;;7.75;6.85;;;;;;;19.41;59.72;100638.64;154025;1101;103125;-77
2021/06/05 06:51:21;;;;;;;8.00;6.70;;;;;;;19.68;59.09;100630.63;154049;1097;103187;-70
2021/06/05 06:54:25;;;;;;;7.13;6.00;;;;;;;19.79;58.90;100636.30;154011;1095;103131;-74
2021/06/05 06:57:28;;;;;;;10.60;6.83;;;;;;;19.91;58.91;100633.83;154024;1097;103168;-75
2021/06/05 07:00:36;;;;;;;7.30;6.60;;;;;;;19.97;58.75;100626.75;153940;1101;103158;-76
2021/06/05 07:03:40;;;;;;;7.30;6.13;;;;;;;19.98;58.23;100623.84;153949;1101;103128;-75
2021/06/05 07:06:43;;;;;;;6.75;6.03;;;;;;;20.17;58.26;100621.38;153953;1102;103119;-74
2021/06/05 07:09:47;;;;;;;8.23;6.60;;;;;;;20.37;58.15;100616.78;153948;1101;103213;-75
2021/06/05 07:12:50;;;;;;;6.40;5.77;;;;;;;20.52;57.87;100613.03;153960;1101;103597;-74
2021/06/05 07:15:56;;;;;;;8.20;5.90;;;;;;;20.68;57.05;100619.92;153956;1095;103203;-75
2021/06/05 07:19:01;;;;;;;9.28;6.48;;;;;;;20.78;56.95;100613.03;153923;1096;103218;-75
2021/06/05 07:22:03;;;;;;;7.88;6.45;;;;;;;;;;153949;1097;103568;-74
2021/06/05 07:25:09;;;;;;;6.57;5.97;;;;;;;20.93;56.76;100609.23;153995;1096;103245;-74
2021/06/05 07:28:19;;;;;;;6.37;5.70;;;;;;;21.01;56.75;100606.28;154011;1101;103196;-74
2021/06/05 07:31:25;;;;;;;6.97;6.17;;;;;;;21.10;56.52;100604.18;153975;1101;103133;-75
2021/06/05 07:34:29;;;;;;;6.70;5.67;;;;;;;21.11;56.18;100603.97;153924;1102;103118;-70
2021/06/05 07:37:33;;;;;;;7.07;5.67;;;;;;;21.13;56.07;100599.16;153966;1101;103195;-74
2021/06/05 07:40:37;;;;;;;7.20;6.20;;;;;;;21.13;56.03;100610.02;153954;1096;103576;-74
2021/06/05 07:43:41;;;;;;;7.10;5.60;;;;;;;21.25;56.14;100603.89;153972;1101;103244;-75
2021/06/05 07:46:46;;;;;;;7.70;6.15;;;;;;;21.33;56.06;100607.22;153964;1097;103670;-75
2021/06/05 07:49:51;;;;;;;6.70;6.00;;;;;;;21.43;55.84;100600.49;153968;1101;103173;-75
2021/06/05 07:52:55;;;;;;;7.40;6.13;;;;;;;21.44;55.45;100602.17;153963;1097;103114;-74
2021/06/05 07:55:59;;;;;;;7.00;5.85;;;;;;;21.52;55.65;100597.34;153939;1101;103272;-74
2021/06/05 07:59:03;;;;;;;6.63;5.80;;;;;;;21.60;55.12;100592.72;154006;1101;103133;-75
2021/06/05 08:02:07;;;;;;;6.40;5.10;;;;;;;21.63;54.74;100586.83;153930;1101;103200;-75
2021/06/05 08:05:14;;;;;;;7.93;5.53;;;;;;;21.69;54.31;100586.81;153966;1096;103195;-74
2021/06/05 08:08:18;;;;;;;6.90;5.20;;;;;;;21.73;54.60;100587.21;153996;1097;103133;-74
2021/06/05 08:11:21;;;;;;;5.80;5.27;;;;;;;21.65;54.35;100585.59;153997;1101;103277;-76
2021/06/05 08:14:26;;;;;;;6.23;4.80;;;;;;;21.50;54.43;100577.72;154003;1101;103218;-74
2021/06/05 08:17:29;;;;;;;7.53;5.47;;;;;;;21.47;54.24;100578.15;153937;1096;103152;-75
2021/06/05 08:20:36;;;;;;;7.15;5.63;;;;;;;21.55;54.65;100574.34;153969;1096;103232;-73
2021/06/05 08:23:40;;;;;;;7.43;5.00;;;;;;;21.65;54.42;100574.72;154101;1101;103199;-72
2021/06/05 08:26:44;;;;;;;6.90;6.20;;;;;;;21.73;54.19;100570.91;153977;1101;103277;-75
2021/06/05 08:29:48;;;;;;;8.50;6.18;;;;;;;21.76;54.21;100565.02;153994;1097;103151;-74
2021/06/05 08:32:52;;;;;;;6.58;5.90;;;;;;;21.79;53.75;100561.88;153948;1095;103132;-73
2021/06/05 08:35:56;;;;;;;5.77;5.20;;;;;;;21.83;53.77;100552.23;153898;1096;103741;-72
2021/06/05 08:39:01;;;;;;;5.48;4.78;;;;;;;21.92;53.63;100560.94;153992;1097;103660;-74
2021/06/05 08:42:08;;;;;;;5.90;5.20;;;;;;;22.00;53.76;100548.95;153976;1101;103301;-73
2021/06/05 08:45:13;;;;;;;6.45;5.50;;;;;;;22.06;53.45;100546.20;154003;1097;103199;-74
2021/06/05 08:48:20;;;;;;;5.23;4.57;;;;;;;22.16;53.34;100551.96;153978;1101;103142;-75
2021/06/05 08:51:31;;;;;;;6.47;5.30;;;;;;;22.22;52.76;100557.57;153980;1096;103147;-73
2021/06/05 08:54:47;;;;;;;6.57;5.80;;;;;;;22.30;53.30;100555.42;154118;1096;103125;-73
2021/06/05 08:57:55;;;;;;;6.63;5.83;;;;;;;22.37;52.75;100552.66;153940;1101;103280;-73
2021/06/05 09:01:03;;;;;;;7.43;6.17;;;;;;;22.38;52.83;100548.04;154057;1094;103576;-72
2021/06/05 09:04:12;;;;;;;6.48;5.48;;;;;;;22.43;52.46;100545.49;153978;1101;103192;-73
2021/06/05 09:07:25;;;;;;;5.90;5.30;;;;;;;22.49;52.72;100550.02;153924;1101;103196;-74
2021/06/05 09:10:30;;;;;;;6.53;5.50;;;;;;;22.52;52.52;100541.43;153985;1095;103136;-73
2021/06/05 09:13:35;;;;;;;6.78;6.08;;;;;;;22.55;52.64;100549.13;153960;1097;103303;-74
2021/06/05 09:16:46;;;;;;;7.43;5.90;;;;;;;22.59;52.42;100547.61;154200;1101;103195;-77
2021/06/05 09:20:13;;;;;;;7.18;6.38;;;;;;;22.55;52.58;100536.34;154013;1101;103116;-74
2021/06/05 09:23:34;;;;;;;6.60;5.55;;;;;;;22.47;52.18;100542.09;153968;1101;103164;-74
2021/06/05 09:26:38;;;;;;;6.00;5.40;;;;;;;22.55;51.11;100535.52;153967;1101;103116;-77
2021/06/05 09:29:56;;;;;;;5.70;5.10;;;;;;;22.61;50.68;100531.07;153973;1095;103144;-73
2021/06/05 09:33:03;;;;;;;6.87;5.67;;;;;;;22.74;50.30;100522.77;154007;1101;103167;-74
2021/06/05 09:36:23;;;;;;;7.17;5.57;;;;;;;22.88;50.69;100520.71;154153;1101;103154;-71
2021/06/05 09:39:41;;;;;;;5.83;4.87;;;;;;;23.15;50.74;100521.23;154268;1096;103195;-73
2021/06/05 09:42:47;;;;;;;5.78;4.70;;;;;;;23.43;50.31;100514.38;154004;1101;103580;-77
2021/06/05 09:46:07;;;;;;;5.08;4.58;;;;;;;23.79;50.12;100518.03;154016;1101;103200;-74
2021/06/05 09:49:20;;;;;;;5.10;4.60;;;;;;;24.25;49.72;100517.27;154044;1096;103126;-73
2021/06/05 09:52:35;;;;;;;4.73;4.23;;;;;;;24.56;49.47;100508.95;153979;1101;103215;-73
2021/06/05 09:55:40;;;;;;;5.47;4.53;;;;;;;24.67;48.40;100508.10;154036;1101;103609;-72
2021/06/05 09:58:47;;;;;;;6.77;5.30;;;;;;;24.67;48.95;100508.95;154179;1101;103160;-72
2021/06/05 10:02:02;;;;;;;6.70;4.95;;;;;;;24.65;48.61;100504.79;153980;1096;103368;-72
2021/06/05 10:05:15;;;;;;;5.83;4.15;;;;;;;24.39;48.09;100501.48;154018;1101;103187;-74
2021/06/05 10:08:33;;;;;;;6.83;6.13;;;;;;;24.14;48.64;100504.45;153980;1101;103195;-73
2021/06/05 10:11:41;;;;;;;6.98;6.28;;;;;;;23.70;49.11;100506.63;153970;1101;103217;-73
2021/06/05 10:14:57;;;;;;;6.90;6.00;;;;;;;23.26;49.34;100508.74;153956;1096;103133;-73
2021/06/05 10:18:06;;;;;;;6.55;5.43;;;;;;;22.92;49.48;100513.75;153954;1096;103288;-74
2021/06/05 10:21:16;;;;;;;5.67;5.17;;;;;;;22.68;49.86;100510.91;154004;1101;103151;-73
2021/06/05 10:24:28;;;;;;;6.27;5.70;;;;;;;22.60;48.85;100507.67;154004;1101;103163;-73
2021/06/05 10:27:37;;;;;;;8.90;5.48;;;;;;;22.60;49.41;100505.77;153965;1096;103191;-74
2021/06/05 10:30:47;;;;;;;6.15;5.55;;;;;;;22.60;49.62;100503.05;153985;1101;103468;-73
2021/06/05 10:33:54;;;;;;;6.90;5.80;;;;;;;22.87;49.74;100500.02;153989;1101;103131;-73
2021/06/05 10:36:59;;;;;;;8.65;5.53;;;;;;;23.24;49.22;100497.26;154041;1101;103124;-73
2021/06/05 10:40:08;;;;;;;6.25;5.65;;;;;;;23.57;49.27;100495.94;153986;1101;103125;-73
2021/06/05 10:43:15;;;;;;;7.97;5.27;;;;;;;23.82;49.19;100488.42;153969;1101;103218;-73
2021/06/05 10:46:47;;;;;;;5.90;5.23;;;;;;;23.89;48.87;100480.97;153989;1096;103100;-72
2021/06/05 10:49:56;;;;;;;5.75;5.25;;;;;;;23.94;47.90;100482.98;153957;1097;103245;-72
2021/06/05 10:53:07;;;;;;;5.73;4.50;;;;;;;23.90;47.61;100484.52;154041;1096;103170;-74
2021/06/05 10:56:18;;;;;;;4.67;4.27;;;;;;;23.95;47.76;100476.48;153977;1101;103103;-74
2021/06/05 10:59:44;;;;;;;5.97;4.47;;;;;;;24.04;48.00;100476.97;153949;1101;103582;-74
2021/06/05 11:02:51;;;;;;;5.83;4.65;;;;;;;24.33;48.18;100477.90;154001;1101;103123;-72
2021/06/05 11:06:04;;;;;;;5.70;4.20;;;;;;;24.55;47.94;100483.58;154009;1101;103296;-72
2021/06/05 11:09:36;;;;;;;6.53;4.97;;;;;;;24.62;47.48;100487.01;154027;1101;103108;-72
2021/06/05 11:12:52;;;;;;;5.83;5.25;;;;;;;24.75;47.19;100476.88;153967;1095;103129;-73
2021/06/05 11:15:59;;;;;;;5.60;4.75;;;;;;;24.77;46.91;100488.38;154000;1097;103200;-73
2021/06/05 11:19:32;;;;;;;5.17;4.60;;;;;;;24.71;47.41;100492.08;154074;1096;103499;-73
2021/06/05 11:23:09;;;;;;;4.93;4.43;;;;;;;24.65;47.52;100486.54;153976;1101;103426;-73
2021/06/05 11:26:42;;;;;;;5.40;4.90;;;;;;;24.64;46.96;100497.69;153963;1101;103197;-73
2021/06/05 11:29:57;;;;;;;5.30;4.80;;;;;;;24.59;46.73;100484.75;153936;1101;103128;-72
2021/06/05 11:33:02;;;;;;;6.30;4.55;;;;;;;24.63;46.95;100483.20;153985;1101;103206;-73
2021/06/05 11:36:40;;;;;;;6.90;4.70;;;;;;;24.80;47.11;100486.01;153989;1101;103195;-74
2021/06/05 11:39:57;;;;;;;6.98;4.60;;;;;;;24.92;46.93;100491.42;153993;1095;103595;-73
2021/06/05 11:43:01;;;;;;;6.43;4.97;;;;;;;25.07;47.04;100480.80;154066;1095;103102;-73
2021/06/05 11:46:08;;;;;;;5.10;4.60;;;;;;;25.33;47.05;100483.20;153955;1097;103136;-73
2021/06/05 11:49:26;;;;;;;6.83;4.67;;;;;;;25.52;46.32;100481.09;154222;1094;103195;-72
2021/06/05 11:52:46;;;;;;;4.97;4.40;;;;;;;25.56;46.09;100483.09;153983;1101;103121;-72
2021/06/05 11:55:55;;;;;;;5.10;4.20;;;;;;;25.74;45.73;100476.55;154026;1095;103114;-72
2021/06/05 11:59:21;;;;;;;4.58;4.10;;;;;;;25.94;45.81;100470.61;153908;1101;103194;-72
2021/06/05 12:02:27;;;;;;;5.05;4.55;;;;;;;26.16;45.25;100475.33;153947;1101;103685;-72
2021/06/05 12:05:35;;;;;;;5.20;4.53;;;;;;;26.28;45.04;100467.01;153944;1101;103171;-72
2021/06/05 12:08:39;;;;;;;4.90;4.43;;;;;;;26.34;45.22;100466.81;153952;1101;103197;-72
2021/06/05 12:11:47;;;;;;;5.30;4.60;;;;;;;26.24;44.86;100463.95;153919;1101;103205;-72
2021/06/05 12:14:59;;;;;;;5.00;4.50;;;;;;;26.06;45.03;100459.59;153949;1096;103110;-72
2021/06/05 12:18:06;;;;;;;5.38;4.50;;;;;;;25.91;44.97;100459.34;154028;1096;103049;-72
2021/06/05 12:21:28;;;;;;;6.77;4.60;;;;;;;25.68;44.68;100461.16;153990;1101;103325;-73
2021/06/05 12:24:32;;;;;;;4.85;4.45;;;;;;;25.47;44.84;100459.98;153995;1101;103147;-73
2021/06/05 12:27:38;;;;;;;4.87;4.30;;;;;;;25.31;44.91;100460.78;153921;1097;103209;-73
2021/06/05 12:30:44;;;;;;;4.88;4.38;;;;;;;25.13;45.08;100457.16;153975;1094;103196;-73
2021/06/05 12:33:58;;;;;;;5.65;4.40;;;;;;;24.96;45.14;100448.95;153968;1101;103130;-72
2021/06/05 12:37:05;;;;;;;5.50;4.20;;;;;;;24.75;45.25;100446.86;153960;1096;103473;-72
2021/06/05 12:40:18;;;;;;;5.67;5.17;;;;;;;24.71;45.81;100446.52;154001;1097;103128;-73
2021/06/05 12:43:29;;;;;;;9.25;5.15;;;;;;;24.69;45.85;100444.05;153991;1095;103298;-73
2021/06/05 12:46:33;;;;;;;;;;;;;;;24.58;45.15;100444.09;154050;1101;103216;-74
2021/06/05 12:49:38;;;;;;;5.88;5.28;;;;;;;24.42;44.89;100446.47;153996;1101;103151;-74
2021/06/05 12:52:46;;;;;;;6.03;5.00;;;;;;;24.27;45.84;100441.50;154002;1097;103212;-72
2021/06/05 12:55:52;;;;;;;5.53;5.03;;;;;;;24.35;45.79;100436.76;153994;1101;103192;-73
2021/06/05 12:58:57;;;;;;;5.70;5.10;;;;;;;24.51;45.18;100416.93;154027;1096;103141;-73
2021/06/05 13:02:20;;;;;;;6.90;6.20;;;;;;;24.77;45.37;100422.89;153966;1096;103121;-73
2021/06/05 13:05:31;;;;;;;16.77;13.03;;;;;;;25.09;44.97;100418.59;153996;1095;103221;-73
2021/06/05 13:08:36;;;;;;;6.93;6.30;;;;;;;25.38;44.87;100406.83;153931;1097;103154;-72
2021/06/05 13:11:46;;;;;;;6.38;4.90;;;;;;;25.61;44.44;100411.30;153952;1101;103227;-73
2021/06/05 13:15:07;;;;;;;5.55;4.20;;;;;;;25.69;43.88;100404.59;154047;1101;103193;-72
2021/06/05 13:18:12;;;;;;;4.97;3.83;;;;;;;25.70;43.37;100396.14;154152;1096;103242;-73
2021/06/05 13:21:21;;;;;;;3.80;3.50;;;;;;;25.72;43.40;100410.39;153979;1101;103195;-73
2021/06/05 13:24:25;;;;;;;4.00;3.53;;;;;;;25.61;43.06;100409.39;153938;1096;103139;-72
2021/06/05 13:27:29;;;;;;;4.03;3.57;;;;;;;25.54;42.36;100396.97;153958;1096;103237;-73
2021/06/05 13:30:38;;;;;;;4.00;3.50;;;;;;;25.28;41.76;100396.56;153935;1096;103291;-72
2021/06/05 13:33:49;;;;;;;3.80;3.50;;;;;;;25.16;42.61;100407.53;153990;1097;103137;-72
2021/06/05 13:37:24;;;;;;;4.40;4.00;;;;;;;25.10;41.88;100403.05;153892;1101;103202;-73
2021/06/05 13:40:28;;;;;;;3.93;3.50;;;;;;;25.04;41.48;100402.13;153938;1097;103184;-72
2021/06/05 13:43:31;;;;;;;4.90;3.33;;;;;;;25.28;41.71;100399.30;153965;1101;103103;-72
2021/06/05 13:46:36;;;;;;;5.50;3.53;;;;;;;25.61;41.61;100394.91;153953;1097;103269;-74
2021/06/05 13:49:40;;;;;;;5.13;3.33;;;;;;;25.86;40.16;100392.55;153977;1101;103602;-73
2021/06/05 13:52:44;;;;;;;3.55;3.08;;;;;;;25.88;41.03;100392.30;154137;1101;103131;-73
2021/06/05 13:55:52;;;;;;;3.83;3.20;;;;;;;25.85;40.27;100387.36;153985;1101;103122;-73
2021/06/05 13:58:56;;;;;;;3.00;2.80;;;;;;;25.83;40.78;100384.86;153959;1101;103237;-73
2021/06/05 14:02:00;;;;;;;4.60;3.00;;;;;;;25.66;38.79;100389.53;154047;1096;103192;-73
2021/06/05 14:05:04;;;;;;;3.48;2.90;;;;;;;25.20;38.86;100392.30;153995;1101;103176;-73
2021/06/05 14:08:08;;;;;;;4.83;2.93;;;;;;;24.68;39.80;100385.08;153988;1094;103127;-74